»·PEaware :: BAW102 CYYC-EGLL

BAW102 :: CYYC-EGLL

FLIGHT INFORMATION

Flight Status: Arrived
Operator:
British Airways
More flights by this operator :: More flights under this callsign
Pilot: Jamyson D. (13674)
Aircraft: Unknown
(B788)
More flights by this aircraft type
Origin: CYYC Calgary Intl
Canada
Destination: EGLL Heathrow
United Kingdom
More flights between these airports :: More routes between these airports
Route: LOMLO PERTU Q961 TULOV YPA YTH YGX 5730N09000W KELMU AMASS GRIBS MAXAR 62N050W 61N040W 60N030W 58N020W SUNOT KESIX MIMKU KELLY UL10 WAL UY53 NUGRA BNN1B
File this flight plan on PilotEdge
Remarks:
Altitude:
(Current/Filed)
37,000ft
Speed:
(Current/Filed)
497kts
Departed: 02-Jun-18 12:29 AM
Arrived: 02-Jun-18 09:00 AM
Distance/Time
Traveled:
3785nm/8:31
Distance/Time
To Go:
Arrived

Flight Plot

Page will automatically refresh every two minutes.

Flight plan parsing failed; only flown route is shown


Map Options




Map Legend


Flown Route
Filed Route
Departure Airport
Arrival Airport
Navaid (VOR, NDB)
Fix

Horizontal Profiles

Position Reports

Time Latitude Longitude Heading Altitude Ground
Speed
02-Jun-18 00:10 51.128007 -114.004980 87 3570ft 0kts
02-Jun-18 00:11 51.128007 -114.004980 87 3570ft 0kts
02-Jun-18 00:12 51.128007 -114.004980 87 3570ft 0kts
02-Jun-18 00:13 51.128007 -114.004980 87 3570ft 0kts
02-Jun-18 00:14 51.128007 -114.004980 87 3570ft 0kts
02-Jun-18 00:15 51.128007 -114.004980 87 3570ft 0kts
02-Jun-18 00:16 51.128009 -114.005831 94 3570ft 2kts
02-Jun-18 00:17 51.128205 -114.006710 149 3570ft 2kts
02-Jun-18 00:18 51.128581 -114.006722 184 3570ft 0kts
02-Jun-18 00:19 51.128579 -114.006722 184 3570ft 0kts
02-Jun-18 00:20 51.128576 -114.006722 184 3570ft 0kts
02-Jun-18 00:21 51.127523 -114.006743 152 3570ft 12kts
02-Jun-18 00:22 51.126126 -114.003399 90 3570ft 6kts
02-Jun-18 00:23 51.126134 -113.999889 89 3570ft 12kts
02-Jun-18 00:24 51.125537 -113.993107 169 3570ft 10kts
02-Jun-18 00:25 51.123437 -113.993053 178 3570ft 6kts
02-Jun-18 00:26 51.121046 -113.993042 180 3570ft 10kts
02-Jun-18 00:27 51.117805 -113.993050 179 3570ft 12kts
02-Jun-18 00:28 51.115371 -113.990879 71 3570ft 11kts
02-Jun-18 00:29 51.120847 -113.990326 0 3570ft 82kts
02-Jun-18 00:30 51.164488 -113.985926 13 5176ft 175kts
02-Jun-18 00:31 51.219006 -113.956014 23 6967ft 249kts
02-Jun-18 00:32 51.271921 -113.880604 58 10608ft 258kts
02-Jun-18 00:33 51.272550 -113.762073 118 13307ft 287kts
02-Jun-18 00:34 51.193290 -113.723690 219 16185ft 276kts
02-Jun-18 00:35 51.192469 -113.822545 326 18336ft 278kts
02-Jun-18 00:36 51.257918 -113.760897 80 19468ft 363kts
02-Jun-18 00:37 51.219645 -113.635624 130 19844ft 420kts
02-Jun-18 00:38 51.155294 -113.469498 121 21603ft 450kts
02-Jun-18 00:39 51.089379 -113.296548 122 23667ft 464kts
02-Jun-18 00:40 51.048822 -113.102268 89 25454ft 481kts
02-Jun-18 00:41 51.036332 -112.888304 97 27218ft 491kts
02-Jun-18 00:42 51.020743 -112.670636 96 28844ft 502kts
02-Jun-18 00:43 51.004039 -112.447606 97 30386ft 512kts
02-Jun-18 00:44 50.986650 -112.220873 97 31794ft 523kts
02-Jun-18 00:45 50.968808 -111.993581 97 33884ft 516kts
02-Jun-18 00:46 50.950745 -111.769471 99 35765ft 510kts
02-Jun-18 00:47 50.933972 -111.545859 90 37327ft 509kts
02-Jun-18 00:48 50.986801 -111.339015 52 38315ft 523kts
02-Jun-18 00:49 51.071184 -111.150372 56 38801ft 522kts
02-Jun-18 00:50 51.153205 -110.961038 56 39621ft 518kts
02-Jun-18 00:51 51.235071 -110.770462 56 40576ft 521kts
02-Jun-18 00:52 51.316948 -110.578539 56 41078ft 523kts
02-Jun-18 00:53 51.398653 -110.385457 56 41084ft 526kts
02-Jun-18 00:54 51.480385 -110.191156 57 41069ft 527kts
02-Jun-18 00:55 51.562122 -109.995079 57 41064ft 527kts
02-Jun-18 00:56 51.643357 -109.798826 58 41070ft 528kts
02-Jun-18 00:57 51.724520 -109.601227 58 41077ft 527kts
02-Jun-18 00:58 51.805073 -109.403587 58 41070ft 527kts
02-Jun-18 00:59 51.885368 -109.205277 58 41061ft 527kts
02-Jun-18 01:00 51.965452 -109.005573 59 41058ft 527kts
02-Jun-18 01:01 52.045005 -108.805883 60 41063ft 528kts
02-Jun-18 01:02 52.124374 -108.605058 60 41059ft 529kts
02-Jun-18 01:03 52.203658 -108.402697 60 41040ft 529kts
02-Jun-18 01:04 52.282054 -108.201246 60 41043ft 528kts
02-Jun-18 01:05 52.360344 -107.998351 60 41035ft 528kts
02-Jun-18 01:06 52.438550 -107.794057 61 41022ft 528kts
02-Jun-18 01:07 52.516186 -107.589737 61 41025ft 529kts
02-Jun-18 01:08 52.593557 -107.384250 61 41027ft 530kts
02-Jun-18 01:09 52.670920 -107.177156 62 41012ft 530kts
02-Jun-18 01:10 52.747781 -106.969733 62 41003ft 531kts
02-Jun-18 01:11 52.824644 -106.760587 62 41002ft 532kts
02-Jun-18 01:12 52.900934 -106.551299 63 40988ft 532kts
02-Jun-18 01:13 52.976922 -106.340992 63 40985ft 532kts
02-Jun-18 01:14 53.052913 -106.128983 63 40976ft 533kts
02-Jun-18 01:15 53.128373 -105.916570 64 40978ft 535kts
02-Jun-18 01:16 53.203752 -105.702687 63 40986ft 537kts
02-Jun-18 01:17 53.283873 -105.491322 61 40977ft 538kts
02-Jun-18 01:18 53.364578 -105.280129 61 40973ft 540kts
02-Jun-18 01:19 53.445052 -105.067859 61 40977ft 541kts
02-Jun-18 01:20 53.525549 -104.853577 61 40979ft 542kts
02-Jun-18 01:21 53.605553 -104.638861 61 40965ft 543kts
02-Jun-18 01:22 53.685352 -104.422774 62 40960ft 544kts
02-Jun-18 01:23 53.765243 -104.204662 62 40972ft 546kts
02-Jun-18 01:24 53.844647 -103.985732 62 40971ft 547kts
02-Jun-18 01:25 53.923807 -103.765726 62 40960ft 547kts
02-Jun-18 01:26 54.002871 -103.544056 62 40958ft 547kts
02-Jun-18 01:27 54.081205 -103.322319 62 40994ft 547kts
02-Jun-18 01:28 54.159483 -103.098755 62 40995ft 548kts
02-Jun-18 01:29 54.237187 -102.874858 61 41007ft 549kts
02-Jun-18 01:30 54.314753 -102.649320 62 41023ft 549kts
02-Jun-18 01:31 54.391716 -102.423364 62 41023ft 549kts
02-Jun-18 01:32 54.468297 -102.196483 62 41018ft 549kts
02-Jun-18 01:33 54.544706 -101.968014 62 41026ft 550kts
02-Jun-18 01:34 54.620419 -101.739449 62 41037ft 549kts
02-Jun-18 01:35 54.695698 -101.510189 62 41035ft 549kts
02-Jun-18 01:36 54.770760 -101.279216 62 41028ft 549kts
02-Jun-18 01:37 54.845129 -101.048308 62 41042ft 549kts
02-Jun-18 01:38 54.919040 -100.816659 62 41086ft 549kts
02-Jun-18 01:39 54.992664 -100.583414 62 41105ft 548kts
02-Jun-18 01:40 55.065574 -100.350371 62 41123ft 548kts
02-Jun-18 01:41 55.138011 -100.116547 62 41133ft 548kts
02-Jun-18 01:42 55.210157 -99.881263 62 41142ft 547kts
02-Jun-18 01:43 55.281495 -99.646366 62 41155ft 546kts
02-Jun-18 01:44 55.352575 -99.410023 62 41174ft 546kts
02-Jun-18 01:45 55.422932 -99.173694 62 41180ft 546kts
02-Jun-18 01:46 55.492716 -98.936817 62 41186ft 545kts
02-Jun-18 01:47 55.562260 -98.698486 62 41206ft 545kts
02-Jun-18 01:48 55.631067 -98.460268 62 41214ft 544kts
02-Jun-18 01:49 55.699339 -98.221301 62 41213ft 544kts
02-Jun-18 01:50 55.767432 -97.980679 62 41214ft 544kts
02-Jun-18 01:51 55.828899 -97.735178 71 41220ft 545kts
02-Jun-18 01:52 55.875528 -97.479040 71 41229ft 544kts
02-Jun-18 01:53 55.922894 -97.222516 71 41228ft 543kts
02-Jun-18 01:54 55.969454 -96.966494 71 41243ft 543kts
02-Jun-18 01:55 56.015354 -96.709967 71 41266ft 543kts
02-Jun-18 01:56 56.060891 -96.452023 71 41286ft 543kts
02-Jun-18 01:57 56.105711 -96.194403 72 41312ft 542kts
02-Jun-18 01:58 56.149940 -95.936529 72 41339ft 542kts
02-Jun-18 01:59 56.193780 -95.677343 72 41362ft 541kts
02-Jun-18 02:00 56.236920 -95.418487 72 41381ft 541kts
02-Jun-18 02:01 56.279649 -95.158081 72 41394ft 542kts
02-Jun-18 02:02 56.321746 -94.897598 72 41391ft 543kts
02-Jun-18 02:03 56.368137 -94.639408 62 41400ft 542kts
02-Jun-18 02:04 56.435376 -94.395919 61 41407ft 540kts
02-Jun-18 02:05 56.500034 -94.151459 61 41398ft 539kts
02-Jun-18 02:06 56.564403 -93.906683 61 41392ft 539kts
02-Jun-18 02:07 56.628511 -93.660227 61 41398ft 539kts
02-Jun-18 02:08 56.691901 -93.413585 61 41404ft 539kts
02-Jun-18 02:09 56.754866 -93.166156 61 41402ft 539kts
02-Jun-18 02:10 56.817577 -92.916935 61 41393ft 539kts
02-Jun-18 02:11 56.879500 -92.667728 62 41403ft 539kts
02-Jun-18 02:12 56.941165 -92.417026 62 41412ft 539kts
02-Jun-18 02:13 57.002092 -92.166208 62 41403ft 539kts
02-Jun-18 02:14 57.062592 -91.914508 62 41392ft 539kts
02-Jun-18 02:15 57.122752 -91.661197 62 41412ft 539kts
02-Jun-18 02:16 57.182182 -91.408031 62 41404ft 539kts
02-Jun-18 02:17 57.241080 -91.154091 62 41418ft 539kts
02-Jun-18 02:18 57.299635 -90.898506 62 41449ft 539kts
02-Jun-18 02:19 57.357494 -90.642943 62 41475ft 539kts
02-Jun-18 02:20 57.414886 -90.386542 62 41478ft 539kts
02-Jun-18 02:21 57.471911 -90.128380 63 41473ft 539kts
02-Jun-18 02:22 57.528012 -89.869950 63 41477ft 539kts
02-Jun-18 02:23 57.583182 -89.610518 63 41502ft 539kts
02-Jun-18 02:24 57.638062 -89.349338 63 41498ft 540kts
02-Jun-18 02:25 57.692208 -89.088232 63 41494ft 540kts
02-Jun-18 02:26 57.745822 -88.826517 64 41507ft 539kts
02-Jun-18 02:27 57.798961 -88.563246 64 41508ft 539kts
02-Jun-18 02:28 57.851468 -88.300081 64 41499ft 539kts
02-Jun-18 02:29 57.903584 -88.035197 65 41497ft 539kts
02-Jun-18 02:30 57.954991 -87.770380 65 41507ft 539kts
02-Jun-18 02:31 58.005866 -87.504734 65 41519ft 539kts
02-Jun-18 02:32 58.056346 -87.237427 65 41534ft 539kts
02-Jun-18 02:33 58.106058 -86.970578 65 41531ft 539kts
02-Jun-18 02:34 58.155059 -86.703372 66 41539ft 538kts
02-Jun-18 02:35 58.203744 -86.434856 65 41539ft 537kts
02-Jun-18 02:36 58.251571 -86.166700 66 41525ft 537kts
02-Jun-18 02:37 58.298883 -85.897721 66 41527ft 537kts
02-Jun-18 02:38 58.345766 -85.627109 66 41535ft 537kts
02-Jun-18 02:39 58.391967 -85.356743 66 41528ft 537kts
02-Jun-18 02:40 58.437694 -85.084825 67 41488ft 537kts
02-Jun-18 02:41 58.482669 -84.813300 67 41466ft 536kts
02-Jun-18 02:42 58.527024 -84.541300 67 41464ft 536kts
02-Jun-18 02:43 58.570951 -84.267792 67 41469ft 536kts
02-Jun-18 02:44 58.614153 -83.994491 68 41467ft 536kts
02-Jun-18 02:45 58.656754 -83.720563 68 41461ft 536kts
02-Jun-18 02:46 58.698940 -83.445043 68 41470ft 536kts
02-Jun-18 02:47 58.733501 -83.215831 68 41477ft 535kts
02-Jun-18 02:48 58.774398 -82.940370 69 41467ft 535kts
02-Jun-18 02:49 58.814827 -82.663459 69 41473ft 535kts
02-Jun-18 02:50 58.854506 -82.387013 69 41478ft 535kts
02-Jun-18 02:51 58.893560 -82.110270 69 41471ft 534kts
02-Jun-18 02:52 58.938493 -81.785686 70 41467ft 534kts
02-Jun-18 02:53 58.976208 -81.507595 71 41470ft 534kts
02-Jun-18 02:54 59.013368 -81.228941 71 41480ft 534kts
02-Jun-18 02:55 59.050099 -80.948575 71 41477ft 534kts
02-Jun-18 02:56 59.080121 -80.715355 71 41487ft 535kts
02-Jun-18 02:57 59.115598 -80.434668 71 41492ft 535kts
02-Jun-18 02:58 59.150589 -80.152497 72 41482ft 535kts
02-Jun-18 02:59 59.194809 -79.876664 61 41477ft 533kts
02-Jun-18 03:00 59.252990 -79.612001 62 41485ft 529kts
02-Jun-18 03:01 59.309411 -79.345511 62 41490ft 529kts
02-Jun-18 03:02 59.365202 -79.079160 63 41479ft 529kts
02-Jun-18 03:03 59.420661 -78.811006 63 41472ft 529kts
02-Jun-18 03:04 59.475340 -78.542910 63 41476ft 529kts
02-Jun-18 03:05 59.529507 -78.273893 63 41474ft 529kts
02-Jun-18 03:06 59.583337 -78.003113 64 41459ft 529kts
02-Jun-18 03:07 59.636409 -77.732213 64 41446ft 529kts
02-Jun-18 03:08 59.688956 -77.460218 65 41453ft 530kts
02-Jun-18 03:09 59.741145 -77.186295 65 41445ft 530kts
02-Jun-18 03:10 59.792663 -76.912246 65 41442ft 531kts
02-Jun-18 03:11 59.843573 -76.637248 66 41449ft 531kts
02-Jun-18 03:12 59.894154 -76.360342 66 41440ft 531kts
02-Jun-18 03:13 59.944005 -76.083288 66 41424ft 532kts
02-Jun-18 03:14 59.993299 -75.805305 67 41419ft 532kts
02-Jun-18 03:15 60.042237 -75.525470 67 41411ft 532kts
02-Jun-18 03:16 60.090327 -75.245766 68 41353ft 532kts
02-Jun-18 03:17 60.138037 -74.964401 68 41303ft 532kts
02-Jun-18 03:18 60.185005 -74.682920 68 41260ft 532kts
02-Jun-18 03:19 60.231397 -74.400399 69 41226ft 533kts
02-Jun-18 03:20 60.277419 -74.115683 69 41196ft 534kts
02-Jun-18 03:21 60.322740 -73.830828 69 41170ft 534kts
02-Jun-18 03:22 60.367458 -73.545186 69 41152ft 534kts
02-Jun-18 03:23 60.411696 -73.257821 70 41133ft 534kts
02-Jun-18 03:24 60.455143 -72.970652 71 41116ft 534kts
02-Jun-18 03:25 60.498022 -72.682683 71 41106ft 534kts
02-Jun-18 03:26 60.540428 -72.392795 72 41105ft 535kts
02-Jun-18 03:27 60.582075 -72.102975 72 41094ft 535kts
02-Jun-18 03:28 60.623135 -71.812083 72 41079ft 536kts
02-Jun-18 03:29 60.663770 -71.519090 73 41087ft 536kts
02-Jun-18 03:30 60.703648 -71.226430 73 41080ft 536kts
02-Jun-18 03:31 60.742959 -70.932155 73 41071ft 536kts
02-Jun-18 03:32 60.781456 -70.638125 74 41075ft 536kts
02-Jun-18 03:33 60.819415 -70.343325 74 41082ft 536kts
02-Jun-18 03:34 60.856781 -70.046779 75 41074ft 536kts
02-Jun-18 03:35 60.893437 -69.750383 75 41064ft 536kts
02-Jun-18 03:36 60.929443 -69.453221 75 41070ft 536kts
02-Jun-18 03:37 60.964875 -69.154639 76 41080ft 536kts
02-Jun-18 03:38 60.999500 -68.856530 76 41077ft 536kts
02-Jun-18 03:39 61.033418 -68.557837 77 41076ft 535kts
02-Jun-18 03:40 61.065238 -68.257041 78 41078ft 535kts
02-Jun-18 03:41 61.095957 -67.956477 79 41084ft 535kts
02-Jun-18 03:42 61.125993 -67.655263 79 41077ft 535kts
02-Jun-18 03:43 61.155484 -67.352430 79 41074ft 535kts
02-Jun-18 03:44 61.184218 -67.049903 80 41083ft 536kts
02-Jun-18 03:45 61.212401 -66.745787 80 41087ft 536kts
02-Jun-18 03:46 61.239759 -66.442060 80 41076ft 536kts
02-Jun-18 03:47 61.266450 -66.137793 81 41072ft 536kts
02-Jun-18 03:48 61.292573 -65.832138 81 41079ft 536kts
02-Jun-18 03:49 61.317870 -65.527126 82 41081ft 536kts
02-Jun-18 03:50 61.342539 -65.221491 82 41070ft 536kts
02-Jun-18 03:51 61.366548 -64.914115 82 41066ft 536kts
02-Jun-18 03:52 61.389861 -64.607191 83 41076ft 536kts
02-Jun-18 03:53 61.412461 -64.299757 83 41075ft 536kts
02-Jun-18 03:54 61.434419 -63.990815 84 41064ft 537kts
02-Jun-18 03:55 61.455684 -63.682314 84 41064ft 537kts
02-Jun-18 03:56 61.476215 -63.373324 85 41078ft 537kts
02-Jun-18 03:57 61.495893 -63.062924 86 41077ft 537kts
02-Jun-18 03:58 61.502780 -62.751847 93 41065ft 535kts
02-Jun-18 03:59 61.505438 -62.441180 92 41069ft 534kts
02-Jun-18 04:00 61.507363 -62.129699 93 41080ft 533kts
02-Jun-18 04:01 61.508660 -61.819534 93 41080ft 533kts
02-Jun-18 04:02 61.509231 -61.509355 93 41066ft 533kts
02-Jun-18 04:03 61.509070 -61.197905 94 41071ft 534kts
02-Jun-18 04:04 61.508305 -60.887514 94 41079ft 534kts
02-Jun-18 04:05 61.506731 -60.575990 94 41073ft 534kts
02-Jun-18 04:06 61.504483 -60.265438 95 41066ft 534kts
02-Jun-18 04:07 61.501496 -59.954985 95 41073ft 533kts
02-Jun-18 04:08 61.497883 -59.643814 95 41077ft 533kts
02-Jun-18 04:09 61.493471 -59.333688 96 41068ft 534kts
02-Jun-18 04:10 61.488438 -59.023444 97 41057ft 534kts
02-Jun-18 04:11 61.482633 -58.712145 97 41052ft 534kts
02-Jun-18 04:12 61.476125 -58.401794 97 41022ft 534kts
02-Jun-18 04:13 61.471048 -58.091319 93 40998ft 535kts
02-Jun-18 04:14 61.486669 -57.780282 80 41013ft 541kts
02-Jun-18 04:15 61.517156 -57.470519 83 40997ft 545kts
02-Jun-18 04:16 61.545885 -57.158330 83 40988ft 547kts
02-Jun-18 04:17 61.574008 -56.844044 84 40988ft 547kts
02-Jun-18 04:18 61.601321 -56.530224 84 40990ft 547kts
02-Jun-18 04:19 61.627928 -56.215825 84 40978ft 547kts
02-Jun-18 04:20 61.653918 -55.899644 85 40970ft 547kts
02-Jun-18 04:21 61.679125 -55.583994 85 40973ft 547kts
02-Jun-18 04:22 61.703604 -55.267061 85 40981ft 546kts
02-Jun-18 04:23 61.727285 -54.951153 86 40974ft 546kts
02-Jun-18 04:24 61.750183 -54.634892 86 40971ft 546kts
02-Jun-18 04:25 61.772443 -54.316926 86 40981ft 546kts
02-Jun-18 04:26 61.793949 -53.999083 87 40990ft 547kts
02-Jun-18 04:27 61.814736 -53.680650 87 40983ft 547kts
02-Jun-18 04:28 61.834846 -53.361015 87 40981ft 546kts
02-Jun-18 04:29 61.854063 -53.042923 87 40991ft 544kts
02-Jun-18 04:30 61.872485 -52.725224 88 40995ft 544kts
02-Jun-18 04:31 61.890316 -52.406323 88 40989ft 543kts
02-Jun-18 04:32 61.907252 -52.088216 88 40988ft 544kts
02-Jun-18 04:33 61.923492 -51.769400 89 41001ft 544kts
02-Jun-18 04:34 61.939053 -51.449374 89 41006ft 543kts
02-Jun-18 04:35 61.953765 -51.130950 89 41000ft 542kts
02-Jun-18 04:36 61.967798 -50.811729 90 40998ft 541kts
02-Jun-18 04:37 61.980965 -50.493768 90 41020ft 540kts
02-Jun-18 04:38 61.993476 -50.175517 90 41019ft 541kts
02-Jun-18 04:39 61.993849 -49.856421 105 41013ft 536kts
02-Jun-18 04:40 61.972547 -49.544941 103 41028ft 530kts
02-Jun-18 04:41 61.952284 -49.235786 104 41037ft 527kts
02-Jun-18 04:42 61.931347 -48.927881 104 41035ft 524kts
02-Jun-18 04:43 61.909874 -48.622794 104 41037ft 523kts
02-Jun-18 04:44 61.887745 -48.318485 104 41054ft 522kts
02-Jun-18 04:45 61.864868 -48.013740 105 41054ft 522kts
02-Jun-18 04:46 61.841428 -47.710438 105 41051ft 522kts
02-Jun-18 04:47 61.817337 -47.408065 105 41066ft 521kts
02-Jun-18 04:48 61.792579 -47.105977 105 41073ft 519kts
02-Jun-18 04:49 61.767291 -46.806477 105 41067ft 518kts
02-Jun-18 04:50 61.741391 -46.507242 105 41068ft 516kts
02-Jun-18 04:51 61.714951 -46.210023 105 41080ft 516kts
02-Jun-18 04:52 61.687807 -45.912542 105 41083ft 515kts
02-Jun-18 04:53 61.660147 -45.616785 106 41074ft 515kts
02-Jun-18 04:54 61.631769 -45.321649 106 41076ft 515kts
02-Jun-18 04:55 61.602880 -45.026820 106 41085ft 514kts
02-Jun-18 04:56 61.573357 -44.733830 106 41085ft 513kts
02-Jun-18 04:57 61.543181 -44.440527 107 41074ft 513kts
02-Jun-18 04:58 61.512423 -44.148409 107 41073ft 514kts
02-Jun-18 04:59 61.481014 -43.856594 107 41082ft 514kts
02-Jun-18 05:00 61.448920 -43.564708 107 41077ft 513kts
02-Jun-18 05:01 61.416351 -43.274855 107 41066ft 512kts
02-Jun-18 05:02 61.383244 -42.986291 107 41068ft 511kts
02-Jun-18 05:03 61.349497 -42.697859 107 41074ft 511kts
02-Jun-18 05:04 61.315248 -42.411110 108 41067ft 510kts
02-Jun-18 05:05 61.286261 -42.172749 108 41057ft 510kts
02-Jun-18 05:06 61.250808 -41.886454 108 41064ft 510kts
02-Jun-18 05:07 61.208851 -41.554551 108 41067ft 510kts
02-Jun-18 05:08 61.172214 -41.270290 108 41055ft 509kts
02-Jun-18 05:09 61.135166 -40.988255 108 41057ft 508kts
02-Jun-18 05:10 61.097570 -40.707256 108 41060ft 507kts
02-Jun-18 05:11 61.059520 -40.427764 109 41057ft 502kts
02-Jun-18 05:12 61.021278 -40.151579 109 41051ft 500kts
02-Jun-18 05:13 60.991406 -39.871792 99 41044ft 502kts
02-Jun-18 05:14 60.974421 -39.585598 100 41051ft 502kts
02-Jun-18 05:15 60.959059 -39.348436 99 41043ft 502kts
02-Jun-18 05:16 60.940196 -39.064283 100 41035ft 501kts
02-Jun-18 05:17 60.920649 -38.779832 100 41041ft 501kts
02-Jun-18 05:18 60.900602 -38.496889 100 41043ft 500kts
02-Jun-18 05:19 60.880013 -38.214666 100 41031ft 500kts
02-Jun-18 05:20 60.858785 -37.932146 100 41024ft 499kts
02-Jun-18 05:21 60.837081 -37.651565 100 41030ft 498kts
02-Jun-18 05:22 60.814782 -37.371763 100 41019ft 498kts
02-Jun-18 05:23 60.791871 -37.091488 100 41011ft 498kts
02-Jun-18 05:24 60.768516 -36.812726 100 41033ft 497kts
02-Jun-18 05:25 60.744914 -36.539369 101 41032ft 496kts
02-Jun-18 05:26 60.719977 -36.256779 101 41026ft 495kts
02-Jun-18 05:27 60.694980 -35.980799 101 41033ft 494kts
02-Jun-18 05:28 60.669397 -35.705074 101 41045ft 493kts
02-Jun-18 05:29 60.643388 -35.431077 101 41043ft 493kts
02-Jun-18 05:30 60.616809 -35.157607 101 41037ft 493kts
02-Jun-18 05:31 60.589571 -34.883469 101 41048ft 493kts
02-Jun-18 05:32 60.561880 -34.610836 101 41058ft 492kts
02-Jun-18 05:33 60.533690 -34.339262 101 41054ft 491kts
02-Jun-18 05:34 60.504935 -34.068040 101 41052ft 490kts
02-Jun-18 05:35 60.475828 -33.798856 101 41065ft 489kts
02-Jun-18 05:36 60.446197 -33.530672 102 41073ft 488kts
02-Jun-18 05:37 60.415901 -33.261783 102 41069ft 489kts
02-Jun-18 05:38 60.385155 -32.993892 102 41068ft 489kts
02-Jun-18 05:39 60.353845 -32.726565 102 41083ft 489kts
02-Jun-18 05:40 60.321946 -32.459289 102 41086ft 488kts
02-Jun-18 05:41 60.289738 -32.194263 102 41081ft 486kts
02-Jun-18 05:42 60.257007 -31.929760 102 41088ft 485kts
02-Jun-18 05:43 60.223922 -31.667241 103 41101ft 484kts
02-Jun-18 05:44 60.190294 -31.405045 103 41100ft 485kts
02-Jun-18 05:45 60.155974 -31.142061 103 41095ft 486kts
02-Jun-18 05:46 60.121177 -30.880104 103 41133ft 487kts
02-Jun-18 05:47 60.085886 -30.618600 103 41129ft 486kts
02-Jun-18 05:48 60.049993 -30.357270 103 41143ft 485kts
02-Jun-18 05:49 60.013829 -30.098137 103 41150ft 484kts
02-Jun-18 05:50 59.975806 -29.841049 104 41142ft 483kts
02-Jun-18 05:51 59.936161 -29.584422 105 41148ft 483kts
02-Jun-18 05:52 59.896221 -29.329537 104 41160ft 482kts
02-Jun-18 05:53 59.855862 -29.075660 104 41135ft 481kts
02-Jun-18 05:54 59.814977 -28.822077 105 41144ft 480kts
02-Jun-18 05:55 59.773766 -28.570131 105 41155ft 480kts
02-Jun-18 05:56 59.731952 -28.317941 105 41151ft 480kts
02-Jun-18 05:57 59.689715 -28.067070 105 41145ft 481kts
02-Jun-18 05:58 59.647008 -27.816640 105 41155ft 481kts
02-Jun-18 05:59 59.603678 -27.565927 105 41164ft 481kts
02-Jun-18 06:00 59.560010 -27.316941 106 41158ft 480kts
02-Jun-18 06:01 59.515949 -27.068796 106 41154ft 480kts
02-Jun-18 06:02 59.471297 -26.820697 106 41164ft 480kts
02-Jun-18 06:03 59.426334 -26.574128 106 41170ft 480kts
02-Jun-18 06:04 59.380897 -26.328160 106 41163ft 480kts
02-Jun-18 06:05 59.334849 -26.082037 106 41161ft 480kts
02-Jun-18 06:06 59.288485 -25.837372 106 41171ft 480kts
02-Jun-18 06:07 59.241622 -25.593189 106 41177ft 480kts
02-Jun-18 06:08 59.194152 -25.348925 107 41168ft 480kts
02-Jun-18 06:09 59.146381 -25.106126 107 41169ft 480kts
02-Jun-18 06:10 59.098152 -24.863939 107 41180ft 480kts
02-Jun-18 06:11 59.049264 -24.621404 107 41179ft 481kts
02-Jun-18 06:12 59.000063 -24.380234 108 41169ft 481kts
02-Jun-18 06:13 58.950220 -24.138811 108 41172ft 481kts
02-Jun-18 06:14 58.900052 -23.898679 108 41182ft 482kts
02-Jun-18 06:15 58.849376 -23.658945 108 41179ft 482kts
02-Jun-18 06:16 58.798038 -23.418895 108 41170ft 483kts
02-Jun-18 06:17 58.746448 -23.180191 108 41173ft 483kts
02-Jun-18 06:18 58.694349 -22.942124 109 41189ft 483kts
02-Jun-18 06:19 58.641517 -22.703687 109 41180ft 484kts
02-Jun-18 06:20 58.588427 -22.466435 110 41229ft 485kts
02-Jun-18 06:21 58.534771 -22.229472 110 41262ft 486kts
02-Jun-18 06:22 58.480421 -21.992127 110 41255ft 486kts
02-Jun-18 06:23 58.425742 -21.755957 111 41247ft 487kts
02-Jun-18 06:24 58.376890 -21.546930 111 41256ft 487kts
02-Jun-18 06:25 58.314777 -21.284326 111 41259ft 488kts
02-Jun-18 06:26 58.258681 -21.049883 111 41251ft 488kts
02-Jun-18 06:27 58.202115 -20.815997 112 41245ft 488kts
02-Jun-18 06:28 58.144860 -20.581808 112 41261ft 489kts
02-Jun-18 06:29 58.087313 -20.348863 112 41263ft 489kts
02-Jun-18 06:30 58.029086 -20.115669 112 41225ft 490kts
02-Jun-18 06:31 57.977980 -19.878026 105 41218ft 490kts
02-Jun-18 06:32 57.935443 -19.634935 106 41222ft 488kts
02-Jun-18 06:33 57.891756 -19.392457 106 41230ft 488kts
02-Jun-18 06:34 57.847859 -19.151301 106 41223ft 489kts
02-Jun-18 06:35 57.803365 -18.910510 106 41213ft 489kts
02-Jun-18 06:36 57.758281 -18.669275 107 41217ft 490kts
02-Jun-18 06:37 57.712855 -18.429307 107 41224ft 490kts
02-Jun-18 06:38 57.666962 -18.189864 107 41215ft 490kts
02-Jun-18 06:39 57.620498 -17.950184 107 41206ft 490kts
02-Jun-18 06:40 57.573629 -17.711845 108 41211ft 490kts
02-Jun-18 06:41 57.526383 -17.474043 108 41216ft 490kts
02-Jun-18 06:42 57.478465 -17.236021 108 41204ft 490kts
02-Jun-18 06:43 57.430237 -16.999267 108 41198ft 491kts
02-Jun-18 06:44 57.381624 -16.763190 108 41204ft 490kts
02-Jun-18 06:45 57.332338 -16.526980 109 41206ft 490kts
02-Jun-18 06:46 57.282843 -16.292093 109 41193ft 491kts
02-Jun-18 06:47 57.232683 -16.057007 109 41190ft 491kts
02-Jun-18 06:48 57.182239 -15.823376 110 41196ft 491kts
02-Jun-18 06:49 57.131419 -15.590293 110 41195ft 491kts
02-Jun-18 06:50 57.079919 -15.357157 110 41182ft 491kts
02-Jun-18 06:51 57.028202 -15.125396 110 41170ft 491kts
02-Jun-18 06:52 56.993227 -14.884432 93 41138ft 491kts
02-Jun-18 06:53 56.982929 -14.634955 93 41143ft 488kts
02-Jun-18 06:54 56.970311 -14.387469 94 41147ft 488kts
02-Jun-18 06:55 56.957495 -14.140149 94 41138ft 488kts
02-Jun-18 06:56 56.929024 -13.898077 111 41139ft 487kts
02-Jun-18 06:57 56.877593 -13.668241 110 41143ft 489kts
02-Jun-18 06:58 56.826822 -13.437708 110 41133ft 490kts
02-Jun-18 06:59 56.775405 -13.206896 111 41131ft 490kts
02-Jun-18 07:00 56.723640 -12.977448 111 41140ft 490kts
02-Jun-18 07:01 56.671323 -12.747871 111 41139ft 490kts
02-Jun-18 07:02 56.618788 -12.519788 111 41128ft 490kts
02-Jun-18 07:03 56.565829 -12.292320 112 41130ft 490kts
02-Jun-18 07:04 56.512274 -12.064710 112 41138ft 490kts
02-Jun-18 07:05 56.458453 -11.838501 112 41136ft 490kts
02-Jun-18 07:06 56.404317 -11.612952 112 41125ft 490kts
02-Jun-18 07:07 56.349493 -11.387500 113 41126ft 489kts
02-Jun-18 07:08 56.294530 -11.163325 113 41134ft 490kts
02-Jun-18 07:09 56.239120 -10.939742 113 41132ft 490kts
02-Jun-18 07:10 56.183148 -10.716221 113 41121ft 489kts
02-Jun-18 07:11 56.126991 -10.494199 114 41122ft 489kts
02-Jun-18 07:12 56.070289 -10.272280 114 41131ft 489kts
02-Jun-18 07:13 56.013423 -10.051835 114 41126ft 488kts
02-Jun-18 07:14 55.947254 -9.840813 120 41113ft 488kts
02-Jun-18 07:15 55.877615 -9.632403 120 41120ft 488kts
02-Jun-18 07:16 55.807757 -9.425358 120 41124ft 488kts
02-Jun-18 07:17 55.737648 -9.219034 120 41123ft 488kts
02-Jun-18 07:18 55.666924 -9.012681 121 41112ft 488kts
02-Jun-18 07:19 55.596083 -8.807806 121 41113ft 488kts
02-Jun-18 07:20 55.524923 -8.603689 121 41122ft 488kts
02-Jun-18 07:21 55.453430 -8.400311 121 41118ft 488kts
02-Jun-18 07:22 55.381376 -8.197037 121 41107ft 488kts
02-Jun-18 07:23 55.309235 -7.995152 121 41111ft 488kts
02-Jun-18 07:24 55.236797 -7.794268 122 41120ft 487kts
02-Jun-18 07:25 55.163879 -7.593584 122 41114ft 487kts
02-Jun-18 07:26 55.090901 -7.394375 122 41105ft 487kts
02-Jun-18 07:27 55.017366 -7.195247 122 41110ft 487kts
02-Jun-18 07:28 54.943813 -6.997771 123 41119ft 486kts
02-Jun-18 07:29 54.870076 -6.801125 123 41114ft 486kts
02-Jun-18 07:30 54.795944 -6.605330 123 41105ft 486kts
02-Jun-18 07:31 54.721339 -6.409617 123 41110ft 486kts
02-Jun-18 07:32 54.659130 -6.247615 123 41118ft 486kts
02-Jun-18 07:33 54.583965 -6.053165 123 41108ft 485kts
02-Jun-18 07:34 54.508754 -5.860430 123 41107ft 485kts
02-Jun-18 07:35 54.433100 -5.667811 124 41119ft 485kts
02-Jun-18 07:36 54.357412 -5.476820 124 41124ft 484kts
02-Jun-18 07:37 54.281590 -5.286563 124 41121ft 484kts
02-Jun-18 07:38 54.205221 -5.096671 124 41132ft 483kts
02-Jun-18 07:39 54.128928 -4.908288 124 41146ft 483kts
02-Jun-18 07:40 54.052426 -4.720846 124 41140ft 482kts
02-Jun-18 07:41 53.975470 -4.533794 125 41136ft 481kts
02-Jun-18 07:42 53.898627 -4.348032 124 41146ft 481kts
02-Jun-18 07:43 53.822612 -4.161889 124 41146ft 481kts
02-Jun-18 07:44 53.745956 -3.976156 125 41137ft 480kts
02-Jun-18 07:45 53.669315 -3.791675 125 41137ft 480kts
02-Jun-18 07:46 53.592178 -3.607314 125 41147ft 480kts
02-Jun-18 07:47 53.515062 -3.424086 125 41146ft 480kts
02-Jun-18 07:48 53.437499 -3.241376 125 41136ft 481kts
02-Jun-18 07:49 53.414188 -3.186676 125 41145ft 481kts
02-Jun-18 07:50 53.414188 -3.186676 125 41145ft 481kts
02-Jun-18 07:51 53.414188 -3.186676 125 41145ft 481kts
02-Jun-18 07:52 53.414188 -3.186676 125 41145ft 481kts
02-Jun-18 07:53 53.414188 -3.186676 125 41145ft 481kts
02-Jun-18 07:54 53.414188 -3.186676 125 41145ft 481kts
02-Jun-18 07:55 53.414188 -3.186676 125 41145ft 481kts
02-Jun-18 07:56 53.414188 -3.186676 125 41145ft 481kts
02-Jun-18 07:57 53.414188 -3.186676 125 41145ft 481kts
02-Jun-18 07:58 53.414188 -3.186676 125 41145ft 481kts
02-Jun-18 07:59 53.414188 -3.186676 125 41145ft 481kts
02-Jun-18 08:00 53.414188 -3.186676 125 41145ft 481kts
02-Jun-18 08:01 53.414188 -3.186676 125 41145ft 481kts
02-Jun-18 08:02 53.414188 -3.186676 125 41145ft 481kts
02-Jun-18 08:03 53.414188 -3.186676 125 41145ft 481kts
02-Jun-18 08:04 53.414188 -3.186676 125 41145ft 481kts
02-Jun-18 08:05 53.414188 -3.186676 125 41145ft 481kts
02-Jun-18 08:06 53.414188 -3.186676 125 41145ft 481kts
02-Jun-18 08:07 53.414188 -3.186676 125 41145ft 481kts
02-Jun-18 08:08 53.414188 -3.186676 125 41145ft 481kts
02-Jun-18 08:09 53.414188 -3.186676 125 41145ft 481kts
02-Jun-18 08:10 53.414188 -3.186676 125 41145ft 481kts
02-Jun-18 08:11 53.414188 -3.186676 125 41145ft 481kts
02-Jun-18 08:12 53.414188 -3.186676 125 41145ft 481kts
02-Jun-18 08:13 53.414188 -3.186676 125 41145ft 481kts
02-Jun-18 08:14 53.414188 -3.186676 125 41145ft 481kts
02-Jun-18 08:15 53.414188 -3.186676 125 41145ft 481kts
02-Jun-18 08:16 53.414188 -3.186676 125 41145ft 481kts
02-Jun-18 08:17 53.414188 -3.186676 125 41145ft 481kts
02-Jun-18 08:18 53.414188 -3.186676 125 41145ft 481kts
02-Jun-18 08:19 53.414188 -3.186676 125 41145ft 481kts
02-Jun-18 08:20 53.414188 -3.186676 125 41145ft 481kts
02-Jun-18 08:21 53.414188 -3.186676 125 41145ft 481kts
02-Jun-18 08:22 53.414188 -3.186676 125 41145ft 481kts
02-Jun-18 08:23 53.414188 -3.186676 125 41145ft 481kts
02-Jun-18 08:24 53.414188 -3.186676 125 41145ft 481kts
02-Jun-18 08:25 53.414188 -3.186676 125 41145ft 481kts
02-Jun-18 08:26 53.414188 -3.186676 125 41145ft 481kts
02-Jun-18 08:27 53.401512 -3.156997 125 41165ft 475kts
02-Jun-18 08:28 53.322942 -2.979241 126 39396ft 471kts
02-Jun-18 08:29 53.244945 -2.804883 126 37725ft 465kts
02-Jun-18 08:30 53.167874 -2.634023 127 36021ft 458kts
02-Jun-18 08:31 53.094544 -2.462439 124 34644ft 451kts
02-Jun-18 08:32 53.016977 -2.302015 136 32914ft 445kts
02-Jun-18 08:33 52.915458 -2.184944 146 31278ft 443kts
02-Jun-18 08:34 52.811763 -2.076604 146 29564ft 438kts
02-Jun-18 08:35 52.709297 -1.970159 147 27947ft 433kts
02-Jun-18 08:36 52.607527 -1.864984 147 26360ft 428kts
02-Jun-18 08:37 52.507353 -1.762060 148 24706ft 422kts
02-Jun-18 08:38 52.408667 -1.661181 148 23173ft 415kts
02-Jun-18 08:39 52.311260 -1.562158 148 21580ft 407kts
02-Jun-18 08:40 52.216599 -1.464252 143 20147ft 400kts
02-Jun-18 08:41 52.132417 -1.348680 140 18474ft 391kts
02-Jun-18 08:42 52.050472 -1.234798 140 16931ft 382kts
02-Jun-18 08:43 51.970494 -1.124067 140 15417ft 374kts
02-Jun-18 08:44 51.891957 -1.016016 140 13142ft 365kts
02-Jun-18 08:45 51.829630 -0.890810 113 10417ft 360kts
02-Jun-18 08:46 51.789647 -0.754845 118 9086ft 324kts
02-Jun-18 08:47 51.750669 -0.628839 118 7742ft 301kts
02-Jun-18 08:48 51.707803 -0.520816 150 6529ft 280kts
02-Jun-18 08:49 51.646212 -0.452575 145 5981ft 254kts
02-Jun-18 08:50 51.590423 -0.385172 145 5959ft 247kts
02-Jun-18 08:51 51.535398 -0.318644 145 5619ft 251kts
02-Jun-18 08:52 51.484432 -0.243930 109 4271ft 258kts
02-Jun-18 08:53 51.488616 -0.130061 76 2891ft 257kts
02-Jun-18 08:54 51.450130 -0.068319 202 2475ft 221kts
02-Jun-18 08:55 51.445080 -0.145235 299 2515ft 191kts
02-Jun-18 08:56 51.465603 -0.218220 268 2474ft 179kts
02-Jun-18 08:57 51.465418 -0.293337 268 1814ft 157kts
02-Jun-18 08:58 51.465225 -0.357213 269 1054ft 136kts
02-Jun-18 08:59 51.465025 -0.417148 269 341ft 133kts
02-Jun-18 09:00 51.465023 -0.456658 277 96ft 33kts
02-Jun-18 09:01 51.467493 -0.462896 263 96ft 15kts
02-Jun-18 09:02 51.467506 -0.471549 272 96ft 22kts
02-Jun-18 09:03 51.467446 -0.481430 266 96ft 22kts
02-Jun-18 09:04 51.469882 -0.483575 0 96ft 7kts
02-Jun-18 09:05 51.470488 -0.482197 89 96ft 1kts
02-Jun-18 09:06 51.470488 -0.482191 89 96ft 0kts
02-Jun-18 09:07 51.470488 -0.482191 89 96ft 0kts
02-Jun-18 09:08 51.470488 -0.482191 89 96ft 0kts
02-Jun-18 09:09 51.470488 -0.482191 89 96ft 0kts
02-Jun-18 09:10 51.470488 -0.482191 89 96ft 0kts
02-Jun-18 09:11 51.470488 -0.482191 89 96ft 0kts
02-Jun-18 09:12 51.470488 -0.482191 89 96ft 0kts
02-Jun-18 09:13 51.470488 -0.482191 89 96ft 0kts

Navigation Log

Ident Type
Flight plan parsing failed, navigation log unavailable